sensor_id;sensor_type;location;lat;lon;timestamp;pressure;altitude;pressure_sealevel;temperature
41940;BMP180;23057;48.554;14.454;2023-04-06T00:01:07;93907.00;;;7.10
41940;BMP180;23057;48.554;14.454;2023-04-06T00:03:38;93908.00;;;7.20
41940;BMP180;23057;48.554;14.454;2023-04-06T00:06:09;93899.00;;;7.20
41940;BMP180;23057;48.554;14.454;2023-04-06T00:08:40;93904.00;;;7.20
41940;BMP180;23057;48.554;14.454;2023-04-06T00:11:11;93900.00;;;7.10
41940;BMP180;23057;48.554;14.454;2023-04-06T00:13:42;93903.00;;;7.10
41940;BMP180;23057;48.554;14.454;2023-04-06T00:16:13;93891.00;;;7.10
41940;BMP180;23057;48.554;14.454;2023-04-06T00:18:44;93888.00;;;7.20
41940;BMP180;23057;48.554;14.454;2023-04-06T00:21:15;93892.00;;;7.20
41940;BMP180;23057;48.554;14.454;2023-04-06T00:23:46;93892.00;;;7.20
41940;BMP180;23057;48.554;14.454;2023-04-06T00:26:17;93891.00;;;7.10
41940;BMP180;23057;48.554;14.454;2023-04-06T00:28:47;93883.00;;;7.00
41940;BMP180;23057;48.554;14.454;2023-04-06T00:31:20;93881.00;;;7.00
41940;BMP180;23057;48.554;14.454;2023-04-06T00:33:51;93875.00;;;7.00
41940;BMP180;23057;48.554;14.454;2023-04-06T00:36:22;93881.00;;;6.90
41940;BMP180;23057;48.554;14.454;2023-04-06T00:38:52;93878.00;;;6.90
41940;BMP180;23057;48.554;14.454;2023-04-06T00:41:23;93872.00;;;6.80
41940;BMP180;23057;48.554;14.454;2023-04-06T00:43:54;93878.00;;;6.80
41940;BMP180;23057;48.554;14.454;2023-04-06T00:46:25;93869.00;;;6.70
41940;BMP180;23057;48.554;14.454;2023-04-06T00:48:56;93868.00;;;6.70
41940;BMP180;23057;48.554;14.454;2023-04-06T00:51:27;93871.00;;;6.70
41940;BMP180;23057;48.554;14.454;2023-04-06T00:53:58;93872.00;;;6.70
41940;BMP180;23057;48.554;14.454;2023-04-06T00:56:29;93874.00;;;6.70
41940;BMP180;23057;48.554;14.454;2023-04-06T00:58:59;93875.00;;;6.70
41940;BMP180;23057;48.554;14.454;2023-04-06T01:01:30;93874.00;;;6.70
41940;BMP180;23057;48.554;14.454;2023-04-06T01:04:02;93874.00;;;6.60
41940;BMP180;23057;48.554;14.454;2023-04-06T01:06:33;93861.00;;;6.60
41940;BMP180;23057;48.554;14.454;2023-04-06T01:09:04;93868.00;;;6.60
41940;BMP180;23057;48.554;14.454;2023-04-06T01:11:35;93864.00;;;6.50
41940;BMP180;23057;48.554;14.454;2023-04-06T01:14:06;93867.00;;;6.50
41940;BMP180;23057;48.554;14.454;2023-04-06T01:16:37;93869.00;;;6.50
41940;BMP180;23057;48.554;14.454;2023-04-06T01:19:11;93866.00;;;6.50
41940;BMP180;23057;48.554;14.454;2023-04-06T01:21:43;93861.00;;;6.40
41940;BMP180;23057;48.554;14.454;2023-04-06T01:24:14;93863.00;;;6.40
41940;BMP180;23057;48.554;14.454;2023-04-06T01:26:45;93869.00;;;6.30
41940;BMP180;23057;48.554;14.454;2023-04-06T01:29:16;93861.00;;;6.20
41940;BMP180;23057;48.554;14.454;2023-04-06T01:31:46;93862.00;;;6.20
41940;BMP180;23057;48.554;14.454;2023-04-06T01:34:17;93849.00;;;6.10
41940;BMP180;23057;48.554;14.454;2023-04-06T01:36:48;93851.00;;;6.00
41940;BMP180;23057;48.554;14.454;2023-04-06T01:39:19;93853.00;;;6.00
41940;BMP180;23057;48.554;14.454;2023-04-06T01:41:50;93850.00;;;6.00
41940;BMP180;23057;48.554;14.454;2023-04-06T01:44:21;93852.00;;;6.00
41940;BMP180;23057;48.554;14.454;2023-04-06T01:46:52;93860.00;;;6.00
41940;BMP180;23057;48.554;14.454;2023-04-06T01:49:23;93853.00;;;6.00
41940;BMP180;23057;48.554;14.454;2023-04-06T01:51:53;93851.00;;;5.90
41940;BMP180;23057;48.554;14.454;2023-04-06T01:54:24;93859.00;;;5.80
41940;BMP180;23057;48.554;14.454;2023-04-06T01:56:55;93852.00;;;5.80
41940;BMP180;23057;48.554;14.454;2023-04-06T01:59:26;93851.00;;;5.80
41940;BMP180;23057;48.554;14.454;2023-04-06T02:01:57;93851.00;;;5.70
41940;BMP180;23057;48.554;14.454;2023-04-06T02:04:28;93856.00;;;5.70
41940;BMP180;23057;48.554;14.454;2023-04-06T02:06:58;93852.00;;;5.60
41940;BMP180;23057;48.554;14.454;2023-04-06T02:09:29;93844.00;;;5.60
41940;BMP180;23057;48.554;14.454;2023-04-06T02:12:00;93849.00;;;5.60
41940;BMP180;23057;48.554;14.454;2023-04-06T02:14:32;93853.00;;;5.50
41940;BMP180;23057;48.554;14.454;2023-04-06T02:17:03;93850.00;;;5.50
41940;BMP180;23057;48.554;14.454;2023-04-06T02:19:34;93856.00;;;5.40
41940;BMP180;23057;48.554;14.454;2023-04-06T02:22:05;93849.00;;;5.40
41940;BMP180;23057;48.554;14.454;2023-04-06T02:24:36;93844.00;;;5.40
41940;BMP180;23057;48.554;14.454;2023-04-06T02:27:06;93849.00;;;5.30
41940;BMP180;23057;48.554;14.454;2023-04-06T02:29:37;93844.00;;;5.30
41940;BMP180;23057;48.554;14.454;2023-04-06T02:32:08;93847.00;;;5.30
41940;BMP180;23057;48.554;14.454;2023-04-06T02:34:39;93851.00;;;5.30
41940;BMP180;23057;48.554;14.454;2023-04-06T02:37:10;93854.00;;;5.30
41940;BMP180;23057;48.554;14.454;2023-04-06T02:39:41;93845.00;;;5.30
41940;BMP180;23057;48.554;14.454;2023-04-06T02:42:12;93843.00;;;5.20
41940;BMP180;23057;48.554;14.454;2023-04-06T02:44:43;93853.00;;;5.20
41940;BMP180;23057;48.554;14.454;2023-04-06T02:47:14;93849.00;;;5.20
41940;BMP180;23057;48.554;14.454;2023-04-06T02:49:45;93852.00;;;5.10
41940;BMP180;23057;48.554;14.454;2023-04-06T02:52:16;93850.00;;;5.10
41940;BMP180;23057;48.554;14.454;2023-04-06T02:57:20;93852.00;;;5.10
41940;BMP180;23057;48.554;14.454;2023-04-06T02:59:50;93851.00;;;5.10
41940;BMP180;23057;48.554;14.454;2023-04-06T03:02:21;93852.00;;;5.10
41940;BMP180;23057;48.554;14.454;2023-04-06T03:04:52;93854.00;;;5.10
41940;BMP180;23057;48.554;14.454;2023-04-06T03:07:23;93845.00;;;5.10
41940;BMP180;23057;48.554;14.454;2023-04-06T03:09:53;93850.00;;;5.10
41940;BMP180;23057;48.554;14.454;2023-04-06T03:12:25;93848.00;;;5.10
41940;BMP180;23057;48.554;14.454;2023-04-06T03:14:55;93846.00;;;5.00
41940;BMP180;23057;48.554;14.454;2023-04-06T03:17:26;93847.00;;;5.00
41940;BMP180;23057;48.554;14.454;2023-04-06T03:19:57;93843.00;;;5.00
41940;BMP180;23057;48.554;14.454;2023-04-06T03:22:28;93852.00;;;4.90
41940;BMP180;23057;48.554;14.454;2023-04-06T03:24:59;93848.00;;;4.90
41940;BMP180;23057;48.554;14.454;2023-04-06T03:27:30;93848.00;;;4.80
41940;BMP180;23057;48.554;14.454;2023-04-06T03:30:02;93841.00;;;4.80
41940;BMP180;23057;48.554;14.454;2023-04-06T03:32:33;93852.00;;;4.80
41940;BMP180;23057;48.554;14.454;2023-04-06T03:35:04;93863.00;;;4.70
41940;BMP180;23057;48.554;14.454;2023-04-06T03:37:36;93860.00;;;4.70
41940;BMP180;23057;48.554;14.454;2023-04-06T03:40:07;93858.00;;;4.60
41940;BMP180;23057;48.554;14.454;2023-04-06T03:42:38;93851.00;;;4.60
41940;BMP180;23057;48.554;14.454;2023-04-06T03:45:09;93855.00;;;4.50
41940;BMP180;23057;48.554;14.454;2023-04-06T03:47:40;93858.00;;;4.40
41940;BMP180;23057;48.554;14.454;2023-04-06T03:50:11;93868.00;;;4.40
41940;BMP180;23057;48.554;14.454;2023-04-06T03:52:42;93869.00;;;4.50
41940;BMP180;23057;48.554;14.454;2023-04-06T03:55:13;93868.00;;;4.40
41940;BMP180;23057;48.554;14.454;2023-04-06T03:57:43;93863.00;;;4.30
41940;BMP180;23057;48.554;14.454;2023-04-06T04:00:15;93868.00;;;4.30
41940;BMP180;23057;48.554;14.454;2023-04-06T04:02:46;93872.00;;;4.30
41940;BMP180;23057;48.554;14.454;2023-04-06T04:05:17;93869.00;;;4.30
41940;BMP180;23057;48.554;14.454;2023-04-06T04:07:47;93873.00;;;4.30
41940;BMP180;23057;48.554;14.454;2023-04-06T04:10:18;93871.00;;;4.30
41940;BMP180;23057;48.554;14.454;2023-04-06T04:12:49;93872.00;;;4.20
41940;BMP180;23057;48.554;14.454;2023-04-06T04:15:20;93860.00;;;4.20
41940;BMP180;23057;48.554;14.454;2023-04-06T04:17:51;93863.00;;;4.10
41940;BMP180;23057;48.554;14.454;2023-04-06T04:20:22;93871.00;;;4.10
41940;BMP180;23057;48.554;14.454;2023-04-06T04:22:53;93871.00;;;4.10
41940;BMP180;23057;48.554;14.454;2023-04-06T04:25:23;93871.00;;;4.20
41940;BMP180;23057;48.554;14.454;2023-04-06T04:27:54;93869.00;;;4.20
41940;BMP180;23057;48.554;14.454;2023-04-06T04:30:25;93868.00;;;4.20
41940;BMP180;23057;48.554;14.454;2023-04-06T04:32:56;93879.00;;;4.20
41940;BMP180;23057;48.554;14.454;2023-04-06T04:35:27;93886.00;;;4.20
41940;BMP180;23057;48.554;14.454;2023-04-06T04:37:58;93883.00;;;4.10
41940;BMP180;23057;48.554;14.454;2023-04-06T04:40:28;93889.00;;;4.10
41940;BMP180;23057;48.554;14.454;2023-04-06T04:42:59;93902.00;;;4.10
41940;BMP180;23057;48.554;14.454;2023-04-06T04:45:30;93901.00;;;4.10
41940;BMP180;23057;48.554;14.454;2023-04-06T04:48:01;93903.00;;;4.00
41940;BMP180;23057;48.554;14.454;2023-04-06T04:50:32;93907.00;;;4.00
41940;BMP180;23057;48.554;14.454;2023-04-06T04:53:02;93902.00;;;4.10
41940;BMP180;23057;48.554;14.454;2023-04-06T04:55:36;93899.00;;;4.20
41940;BMP180;23057;48.554;14.454;2023-04-06T04:58:07;93899.00;;;4.30
41940;BMP180;23057;48.554;14.454;2023-04-06T05:00:39;93901.00;;;4.40
41940;BMP180;23057;48.554;14.454;2023-04-06T05:03:16;93909.00;;;4.60
41940;BMP180;23057;48.554;14.454;2023-04-06T05:05:52;93904.00;;;4.80
41940;BMP180;23057;48.554;14.454;2023-04-06T05:08:23;93894.00;;;4.90
41940;BMP180;23057;48.554;14.454;2023-04-06T05:10:54;93908.00;;;5.00
41940;BMP180;23057;48.554;14.454;2023-04-06T05:13:25;93901.00;;;5.20
41940;BMP180;23057;48.554;14.454;2023-04-06T05:15:56;93902.00;;;5.40
41940;BMP180;23057;48.554;14.454;2023-04-06T05:18:27;93904.00;;;5.50
41940;BMP180;23057;48.554;14.454;2023-04-06T05:20:58;93908.00;;;5.70
41940;BMP180;23057;48.554;14.454;2023-04-06T05:23:29;93911.00;;;6.00
41940;BMP180;23057;48.554;14.454;2023-04-06T05:25:59;93905.00;;;6.20
41940;BMP180;23057;48.554;14.454;2023-04-06T05:28:30;93905.00;;;6.40
41940;BMP180;23057;48.554;14.454;2023-04-06T05:31:01;93901.00;;;6.50
41940;BMP180;23057;48.554;14.454;2023-04-06T05:33:32;93912.00;;;6.40
41940;BMP180;23057;48.554;14.454;2023-04-06T05:36:03;93916.00;;;6.40
41940;BMP180;23057;48.554;14.454;2023-04-06T05:38:35;93913.00;;;6.40
41940;BMP180;23057;48.554;14.454;2023-04-06T05:41:06;93919.00;;;6.40
41940;BMP180;23057;48.554;14.454;2023-04-06T05:43:37;93919.00;;;6.40
41940;BMP180;23057;48.554;14.454;2023-04-06T05:46:08;93913.00;;;6.40
41940;BMP180;23057;48.554;14.454;2023-04-06T05:48:38;93919.00;;;6.50
41940;BMP180;23057;48.554;14.454;2023-04-06T05:51:09;93919.00;;;6.50
41940;BMP180;23057;48.554;14.454;2023-04-06T05:53:40;93922.00;;;6.60
41940;BMP180;23057;48.554;14.454;2023-04-06T05:56:11;93922.00;;;6.70
41940;BMP180;23057;48.554;14.454;2023-04-06T05:58:42;93915.00;;;6.80
41940;BMP180;23057;48.554;14.454;2023-04-06T06:01:13;93919.00;;;6.90
41940;BMP180;23057;48.554;14.454;2023-04-06T06:03:43;93916.00;;;7.00
41940;BMP180;23057;48.554;14.454;2023-04-06T06:06:14;93928.00;;;7.30
41940;BMP180;23057;48.554;14.454;2023-04-06T06:08:45;93912.00;;;7.40
41940;BMP180;23057;48.554;14.454;2023-04-06T06:11:16;93914.00;;;7.50
41940;BMP180;23057;48.554;14.454;2023-04-06T06:13:47;93920.00;;;7.60
41940;BMP180;23057;48.554;14.454;2023-04-06T06:16:18;93924.00;;;7.60
41940;BMP180;23057;48.554;14.454;2023-04-06T06:18:50;93930.00;;;7.60
41940;BMP180;23057;48.554;14.454;2023-04-06T06:21:20;93928.00;;;7.60
41940;BMP180;23057;48.554;14.454;2023-04-06T06:23:51;93922.00;;;7.60
41940;BMP180;23057;48.554;14.454;2023-04-06T06:26:24;93928.00;;;7.60
41940;BMP180;23057;48.554;14.454;2023-04-06T06:28:55;93924.00;;;7.60
41940;BMP180;23057;48.554;14.454;2023-04-06T06:31:25;93925.00;;;7.70
41940;BMP180;23057;48.554;14.454;2023-04-06T06:33:56;93927.00;;;7.70
41940;BMP180;23057;48.554;14.454;2023-04-06T06:36:29;93925.00;;;7.70
41940;BMP180;23057;48.554;14.454;2023-04-06T06:39:02;93925.00;;;7.80
41940;BMP180;23057;48.554;14.454;2023-04-06T06:41:33;93924.00;;;7.90
41940;BMP180;23057;48.554;14.454;2023-04-06T06:44:04;93921.00;;;8.00
41940;BMP180;23057;48.554;14.454;2023-04-06T06:46:35;93931.00;;;8.00
41940;BMP180;23057;48.554;14.454;2023-04-06T06:49:06;93922.00;;;8.20
41940;BMP180;23057;48.554;14.454;2023-04-06T06:51:37;93925.00;;;8.30
41940;BMP180;23057;48.554;14.454;2023-04-06T06:54:08;93925.00;;;8.30
41940;BMP180;23057;48.554;14.454;2023-04-06T06:56:39;93932.00;;;8.40
41940;BMP180;23057;48.554;14.454;2023-04-06T06:59:10;93931.00;;;8.40
41940;BMP180;23057;48.554;14.454;2023-04-06T07:01:40;93933.00;;;8.50
41940;BMP180;23057;48.554;14.454;2023-04-06T07:04:11;93945.00;;;8.60
41940;BMP180;23057;48.554;14.454;2023-04-06T07:06:42;93935.00;;;8.60
41940;BMP180;23057;48.554;14.454;2023-04-06T07:09:13;93946.00;;;8.70
41940;BMP180;23057;48.554;14.454;2023-04-06T07:11:44;93933.00;;;8.70
41940;BMP180;23057;48.554;14.454;2023-04-06T07:14:15;93940.00;;;8.80
41940;BMP180;23057;48.554;14.454;2023-04-06T07:16:46;93947.00;;;8.90
41940;BMP180;23057;48.554;14.454;2023-04-06T07:19:19;93945.00;;;9.10
41940;BMP180;23057;48.554;14.454;2023-04-06T07:21:50;93948.00;;;9.20
41940;BMP180;23057;48.554;14.454;2023-04-06T07:24:20;93949.00;;;9.30
41940;BMP180;23057;48.554;14.454;2023-04-06T07:26:51;93945.00;;;9.40
41940;BMP180;23057;48.554;14.454;2023-04-06T07:29:22;93946.00;;;9.50
41940;BMP180;23057;48.554;14.454;2023-04-06T07:31:54;93950.00;;;9.70
41940;BMP180;23057;48.554;14.454;2023-04-06T07:34:25;93949.00;;;10.00
41940;BMP180;23057;48.554;14.454;2023-04-06T07:36:56;93944.00;;;10.30
41940;BMP180;23057;48.554;14.454;2023-04-06T07:39:27;93944.00;;;10.60
41940;BMP180;23057;48.554;14.454;2023-04-06T07:41:58;93938.00;;;10.80
41940;BMP180;23057;48.554;14.454;2023-04-06T07:44:29;93943.00;;;11.00
41940;BMP180;23057;48.554;14.454;2023-04-06T07:47:00;93945.00;;;11.30
41940;BMP180;23057;48.554;14.454;2023-04-06T07:49:31;93943.00;;;11.60
41940;BMP180;23057;48.554;14.454;2023-04-06T07:52:03;93940.00;;;11.80
41940;BMP180;23057;48.554;14.454;2023-04-06T07:54:34;93944.00;;;12.00
41940;BMP180;23057;48.554;14.454;2023-04-06T07:57:05;93941.00;;;12.30
41940;BMP180;23057;48.554;14.454;2023-04-06T07:59:36;93941.00;;;12.40
41940;BMP180;23057;48.554;14.454;2023-04-06T08:02:06;93942.00;;;12.60
41940;BMP180;23057;48.554;14.454;2023-04-06T08:04:37;93941.00;;;12.70
41940;BMP180;23057;48.554;14.454;2023-04-06T08:07:08;93937.00;;;12.80
41940;BMP180;23057;48.554;14.454;2023-04-06T08:09:39;93941.00;;;13.00
41940;BMP180;23057;48.554;14.454;2023-04-06T08:12:10;93931.00;;;13.10
41940;BMP180;23057;48.554;14.454;2023-04-06T08:14:40;93937.00;;;13.20
41940;BMP180;23057;48.554;14.454;2023-04-06T08:17:12;93937.00;;;13.30
41940;BMP180;23057;48.554;14.454;2023-04-06T08:19:43;93939.00;;;13.40
41940;BMP180;23057;48.554;14.454;2023-04-06T08:22:14;93934.00;;;13.50
41940;BMP180;23057;48.554;14.454;2023-04-06T08:24:45;93939.00;;;13.60
41940;BMP180;23057;48.554;14.454;2023-04-06T08:27:16;93938.00;;;13.70
41940;BMP180;23057;48.554;14.454;2023-04-06T08:29:49;93934.00;;;13.80
41940;BMP180;23057;48.554;14.454;2023-04-06T08:32:21;93941.00;;;14.00
41940;BMP180;23057;48.554;14.454;2023-04-06T08:34:55;93942.00;;;14.10
41940;BMP180;23057;48.554;14.454;2023-04-06T08:37:26;93930.00;;;14.10
41940;BMP180;23057;48.554;14.454;2023-04-06T08:39:57;93930.00;;;14.00
41940;BMP180;23057;48.554;14.454;2023-04-06T08:42:32;93930.00;;;14.00
41940;BMP180;23057;48.554;14.454;2023-04-06T08:45:04;93934.00;;;14.10
41940;BMP180;23057;48.554;14.454;2023-04-06T08:47:36;93933.00;;;14.20
41940;BMP180;23057;48.554;14.454;2023-04-06T08:50:08;93940.00;;;14.40
41940;BMP180;23057;48.554;14.454;2023-04-06T08:52:40;93931.00;;;14.40
41940;BMP180;23057;48.554;14.454;2023-04-06T08:55:14;93925.00;;;14.50
41940;BMP180;23057;48.554;14.454;2023-04-06T08:57:46;93932.00;;;14.70
41940;BMP180;23057;48.554;14.454;2023-04-06T09:00:17;93933.00;;;14.70
41940;BMP180;23057;48.554;14.454;2023-04-06T09:02:49;93929.00;;;14.80
41940;BMP180;23057;48.554;14.454;2023-04-06T09:05:25;93930.00;;;14.90
41940;BMP180;23057;48.554;14.454;2023-04-06T09:07:56;93928.00;;;14.90
41940;BMP180;23057;48.554;14.454;2023-04-06T09:10:27;93911.00;;;14.80
41940;BMP180;23057;48.554;14.454;2023-04-06T09:13:04;93911.00;;;14.60
41940;BMP180;23057;48.554;14.454;2023-04-06T09:15:37;93920.00;;;14.50
41940;BMP180;23057;48.554;14.454;2023-04-06T09:18:08;93913.00;;;14.50
41940;BMP180;23057;48.554;14.454;2023-04-06T09:20:39;93906.00;;;14.50
41940;BMP180;23057;48.554;14.454;2023-04-06T09:23:19;93902.00;;;14.70
41940;BMP180;23057;48.554;14.454;2023-04-06T09:25:50;93911.00;;;14.70
41940;BMP180;23057;48.554;14.454;2023-04-06T09:28:21;93908.00;;;14.90
41940;BMP180;23057;48.554;14.454;2023-04-06T09:30:52;93907.00;;;15.10
41940;BMP180;23057;48.554;14.454;2023-04-06T09:33:23;93903.00;;;15.20
41940;BMP180;23057;48.554;14.454;2023-04-06T09:35:54;93897.00;;;15.10
41940;BMP180;23057;48.554;14.454;2023-04-06T09:38:25;93906.00;;;15.20
41940;BMP180;23057;48.554;14.454;2023-04-06T09:40:56;93911.00;;;15.20
41940;BMP180;23057;48.554;14.454;2023-04-06T09:43:27;93905.00;;;15.20
41940;BMP180;23057;48.554;14.454;2023-04-06T09:46:00;93907.00;;;15.20
41940;BMP180;23057;48.554;14.454;2023-04-06T09:48:33;93913.00;;;15.10
41940;BMP180;23057;48.554;14.454;2023-04-06T09:51:06;93903.00;;;15.10
41940;BMP180;23057;48.554;14.454;2023-04-06T09:53:41;93908.00;;;15.20
41940;BMP180;23057;48.554;14.454;2023-04-06T09:56:16;93901.00;;;15.30
41940;BMP180;23057;48.554;14.454;2023-04-06T09:58:54;93892.00;;;15.30
41940;BMP180;23057;48.554;14.454;2023-04-06T10:01:33;93899.00;;;15.60
41940;BMP180;23057;48.554;14.454;2023-04-06T10:06:59;93892.00;;;16.00
41940;BMP180;23057;48.554;14.454;2023-04-06T10:09:32;93890.00;;;16.10
41940;BMP180;23057;48.554;14.454;2023-04-06T10:12:06;93898.00;;;15.80
41940;BMP180;23057;48.554;14.454;2023-04-06T10:14:38;93894.00;;;15.40
41940;BMP180;23057;48.554;14.454;2023-04-06T10:17:09;93891.00;;;15.30
41940;BMP180;23057;48.554;14.454;2023-04-06T10:25:12;93882.00;;;15.90
41940;BMP180;23057;48.554;14.454;2023-04-06T10:27:43;93881.00;;;16.00
41940;BMP180;23057;48.554;14.454;2023-04-06T10:30:15;93885.00;;;16.20
41940;BMP180;23057;48.554;14.454;2023-04-06T10:32:47;93873.00;;;16.30
41940;BMP180;23057;48.554;14.454;2023-04-06T10:35:18;93877.00;;;16.50
41940;BMP180;23057;48.554;14.454;2023-04-06T10:38:04;93877.00;;;16.60
41940;BMP180;23057;48.554;14.454;2023-04-06T10:40:37;93862.00;;;16.80
41940;BMP180;23057;48.554;14.454;2023-04-06T10:43:17;93874.00;;;16.90
41940;BMP180;23057;48.554;14.454;2023-04-06T10:45:57;93864.00;;;16.90
41940;BMP180;23057;48.554;14.454;2023-04-06T10:51:14;93862.00;;;16.70
41940;BMP180;23057;48.554;14.454;2023-04-06T10:53:47;93858.00;;;16.70
41940;BMP180;23057;48.554;14.454;2023-04-06T10:56:22;93858.00;;;16.80
41940;BMP180;23057;48.554;14.454;2023-04-06T10:58:55;93856.00;;;16.90
41940;BMP180;23057;48.554;14.454;2023-04-06T11:01:26;93861.00;;;17.00
41940;BMP180;23057;48.554;14.454;2023-04-06T11:03:57;93855.00;;;17.20
41940;BMP180;23057;48.554;14.454;2023-04-06T11:06:30;93843.00;;;17.40
41940;BMP180;23057;48.554;14.454;2023-04-06T11:09:02;93843.00;;;17.60
41940;BMP180;23057;48.554;14.454;2023-04-06T11:11:38;93837.00;;;17.80
41940;BMP180;23057;48.554;14.454;2023-04-06T11:14:09;93844.00;;;17.80
41940;BMP180;23057;48.554;14.454;2023-04-06T11:16:40;93846.00;;;17.80
41940;BMP180;23057;48.554;14.454;2023-04-06T11:19:12;93843.00;;;17.90
41940;BMP180;23057;48.554;14.454;2023-04-06T11:21:44;93835.00;;;17.80
41940;BMP180;23057;48.554;14.454;2023-04-06T11:24:23;93840.00;;;17.50
41940;BMP180;23057;48.554;14.454;2023-04-06T11:26:56;93837.00;;;17.40
41940;BMP180;23057;48.554;14.454;2023-04-06T11:29:29;93839.00;;;17.20
41940;BMP180;23057;48.554;14.454;2023-04-06T11:32:02;93835.00;;;17.10
41940;BMP180;23057;48.554;14.454;2023-04-06T11:34:39;93836.00;;;17.00
41940;BMP180;23057;48.554;14.454;2023-04-06T11:37:11;93826.00;;;16.80
41940;BMP180;23057;48.554;14.454;2023-04-06T11:39:50;93828.00;;;16.80
41940;BMP180;23057;48.554;14.454;2023-04-06T11:42:26;93833.00;;;16.90
41940;BMP180;23057;48.554;14.454;2023-04-06T11:44:59;93816.00;;;17.00
41940;BMP180;23057;48.554;14.454;2023-04-06T11:47:32;93827.00;;;17.20
41940;BMP180;23057;48.554;14.454;2023-04-06T11:50:06;93816.00;;;17.30
41940;BMP180;23057;48.554;14.454;2023-04-06T11:52:39;93817.00;;;17.00
41940;BMP180;23057;48.554;14.454;2023-04-06T11:55:14;93821.00;;;16.70
41940;BMP180;23057;48.554;14.454;2023-04-06T11:57:46;93820.00;;;16.50
41940;BMP180;23057;48.554;14.454;2023-04-06T12:00:17;93809.00;;;16.50
41940;BMP180;23057;48.554;14.454;2023-04-06T12:02:48;93805.00;;;16.50
41940;BMP180;23057;48.554;14.454;2023-04-06T12:05:19;93803.00;;;16.50
41940;BMP180;23057;48.554;14.454;2023-04-06T12:07:50;93804.00;;;16.50
41940;BMP180;23057;48.554;14.454;2023-04-06T12:10:21;93801.00;;;16.50
41940;BMP180;23057;48.554;14.454;2023-04-06T12:12:52;93804.00;;;16.40
41940;BMP180;23057;48.554;14.454;2023-04-06T12:15:22;93800.00;;;16.20
41940;BMP180;23057;48.554;14.454;2023-04-06T12:17:53;93797.00;;;16.10
41940;BMP180;23057;48.554;14.454;2023-04-06T12:20:24;93800.00;;;16.00
41940;BMP180;23057;48.554;14.454;2023-04-06T12:22:55;93800.00;;;15.80
41940;BMP180;23057;48.554;14.454;2023-04-06T12:25:26;93795.00;;;15.90
41940;BMP180;23057;48.554;14.454;2023-04-06T12:27:57;93795.00;;;16.10
41940;BMP180;23057;48.554;14.454;2023-04-06T12:30:28;93789.00;;;16.30
41940;BMP180;23057;48.554;14.454;2023-04-06T12:32:59;93785.00;;;16.60
41940;BMP180;23057;48.554;14.454;2023-04-06T12:35:33;93781.00;;;16.60
41940;BMP180;23057;48.554;14.454;2023-04-06T12:38:04;93779.00;;;16.60
41940;BMP180;23057;48.554;14.454;2023-04-06T12:40:38;93766.00;;;16.50
41940;BMP180;23057;48.554;14.454;2023-04-06T12:43:10;93779.00;;;16.40
41940;BMP180;23057;48.554;14.454;2023-04-06T12:45:41;93779.00;;;16.40
41940;BMP180;23057;48.554;14.454;2023-04-06T12:48:11;93776.00;;;16.50
41940;BMP180;23057;48.554;14.454;2023-04-06T12:50:42;93776.00;;;16.70
41940;BMP180;23057;48.554;14.454;2023-04-06T12:53:13;93777.00;;;16.90
41940;BMP180;23057;48.554;14.454;2023-04-06T12:55:44;93772.00;;;16.90
41940;BMP180;23057;48.554;14.454;2023-04-06T12:58:15;93774.00;;;16.80
41940;BMP180;23057;48.554;14.454;2023-04-06T13:00:47;93768.00;;;16.70
41940;BMP180;23057;48.554;14.454;2023-04-06T13:03:20;93771.00;;;16.70
41940;BMP180;23057;48.554;14.454;2023-04-06T13:05:51;93782.00;;;16.70
41940;BMP180;23057;48.554;14.454;2023-04-06T13:08:22;93766.00;;;16.70
41940;BMP180;23057;48.554;14.454;2023-04-06T13:10:53;93761.00;;;16.90
41940;BMP180;23057;48.554;14.454;2023-04-06T13:13:26;93770.00;;;16.90
41940;BMP180;23057;48.554;14.454;2023-04-06T13:16:04;93770.00;;;17.10
41940;BMP180;23057;48.554;14.454;2023-04-06T13:18:37;93763.00;;;17.30
41940;BMP180;23057;48.554;14.454;2023-04-06T13:21:09;93764.00;;;17.30
41940;BMP180;23057;48.554;14.454;2023-04-06T13:23:44;93769.00;;;17.20
41940;BMP180;23057;48.554;14.454;2023-04-06T13:26:15;93761.00;;;17.10
41940;BMP180;23057;48.554;14.454;2023-04-06T13:28:47;93759.00;;;16.90
41940;BMP180;23057;48.554;14.454;2023-04-06T13:31:18;93750.00;;;17.00
41940;BMP180;23057;48.554;14.454;2023-04-06T13:33:48;93752.00;;;17.00
41940;BMP180;23057;48.554;14.454;2023-04-06T13:36:19;93751.00;;;17.10
41940;BMP180;23057;48.554;14.454;2023-04-06T13:38:50;93745.00;;;17.20
41940;BMP180;23057;48.554;14.454;2023-04-06T13:41:22;93750.00;;;17.10
41940;BMP180;23057;48.554;14.454;2023-04-06T13:43:55;93756.00;;;17.00
41940;BMP180;23057;48.554;14.454;2023-04-06T13:46:28;93754.00;;;16.90
41940;BMP180;23057;48.554;14.454;2023-04-06T13:48:59;93761.00;;;17.00
41940;BMP180;23057;48.554;14.454;2023-04-06T13:51:30;93749.00;;;17.10
41940;BMP180;23057;48.554;14.454;2023-04-06T13:54:01;93746.00;;;17.00
41940;BMP180;23057;48.554;14.454;2023-04-06T13:56:31;93734.00;;;16.90
41940;BMP180;23057;48.554;14.454;2023-04-06T13:59:03;93743.00;;;16.60
41940;BMP180;23057;48.554;14.454;2023-04-06T14:01:33;93737.00;;;16.30
41940;BMP180;23057;48.554;14.454;2023-04-06T14:04:04;93746.00;;;16.10
41940;BMP180;23057;48.554;14.454;2023-04-06T14:06:36;93741.00;;;16.00
41940;BMP180;23057;48.554;14.454;2023-04-06T14:09:07;93744.00;;;15.90
41940;BMP180;23057;48.554;14.454;2023-04-06T14:11:38;93745.00;;;15.90
41940;BMP180;23057;48.554;14.454;2023-04-06T14:14:09;93739.00;;;15.90
41940;BMP180;23057;48.554;14.454;2023-04-06T14:16:40;93745.00;;;15.80
41940;BMP180;23057;48.554;14.454;2023-04-06T14:19:16;93731.00;;;15.70
41940;BMP180;23057;48.554;14.454;2023-04-06T14:21:51;93736.00;;;15.50
41940;BMP180;23057;48.554;14.454;2023-04-06T14:24:21;93735.00;;;15.40
41940;BMP180;23057;48.554;14.454;2023-04-06T14:26:52;93746.00;;;15.30
41940;BMP180;23057;48.554;14.454;2023-04-06T14:29:23;93745.00;;;15.30
41940;BMP180;23057;48.554;14.454;2023-04-06T14:31:54;93747.00;;;15.50
41940;BMP180;23057;48.554;14.454;2023-04-06T14:34:30;93734.00;;;15.60
41940;BMP180;23057;48.554;14.454;2023-04-06T14:37:00;93732.00;;;15.70
41940;BMP180;23057;48.554;14.454;2023-04-06T14:39:31;93728.00;;;15.60
41940;BMP180;23057;48.554;14.454;2023-04-06T14:42:02;93732.00;;;15.50